Time;durP1;ratioP1;P1;durP2;ratioP2;P2;SDS_P1;SDS_P2;PMS_P1;PMS_P2;Temp;Humidity;BMP_temperature;BMP_pressure;BME280_temperature;BME280_humidity;BME280_pressure;Samples;Min_cycle;Max_cycle;Signal;HPM_P1;HPM_P2
2024/01/27 00:01:20;;;;;;;9.37;5.87;;;;;;;3.87;100.00;100110.09;5070729;28;20296;-55
2024/01/27 00:03:50;;;;;;;8.50;4.90;;;;;;;3.91;100.00;100108.47;5071020;28;20291;-54
2024/01/27 00:06:17;;;;;;;7.10;3.87;;;;;;;3.94;100.00;100126.38;5061162;28;20224;-57
2024/01/27 00:08:46;;;;;;;5.67;3.63;;;;;;;3.97;99.71;100135.72;5068436;28;20228;-55
2024/01/27 00:11:14;;;;;;;4.47;2.93;;;;;;;3.98;98.56;100127.28;5070903;28;20571;-52
2024/01/27 00:13:41;;;;;;;3.77;2.67;;;;;;;4.01;97.00;100127.31;5064198;28;20204;-54
2024/01/27 00:16:09;;;;;;;4.60;2.53;;;;;;;4.01;96.85;100137.50;5068207;28;20256;-56
2024/01/27 00:18:39;;;;;;;5.40;2.93;;;;;;;4.01;96.25;100158.75;5070789;28;20205;-54
2024/01/27 00:21:08;;;;;;;3.80;1.90;;;;;;;4.01;95.92;100137.50;5069947;28;20201;-56
2024/01/27 00:23:36;;;;;;;4.77;1.77;;;;;;;3.99;94.52;100151.94;5067063;28;20722;-55
2024/01/27 00:26:04;;;;;;;6.03;1.57;;;;;;;3.96;94.15;100159.50;5061408;28;20271;-55
2024/01/27 00:28:32;;;;;;;2.53;1.33;;;;;;;3.96;94.22;100165.47;5059990;28;20224;-57
2024/01/27 00:31:00;;;;;;;2.50;1.00;;;;;;;3.98;92.83;100173.16;5070372;28;20209;-57
2024/01/27 00:33:28;;;;;;;3.60;1.27;;;;;;;3.99;93.36;100169.78;5062010;28;20239;-57
2024/01/27 00:35:57;;;;;;;5.10;1.43;;;;;;;3.97;93.41;100177.38;5071843;28;20205;-55
2024/01/27 00:38:25;;;;;;;2.10;1.23;;;;;;;3.98;93.45;100188.47;5070851;28;20656;-56
2024/01/27 00:40:53;;;;;;;2.20;1.10;;;;;;;3.99;93.15;100180.81;5070222;28;20205;-55
2024/01/27 00:43:21;;;;;;;3.40;1.20;;;;;;;3.97;92.38;100187.56;5070390;28;20284;-60
2024/01/27 00:45:49;;;;;;;4.93;1.33;;;;;;;3.97;92.79;100194.38;5069167;28;20243;-57
2024/01/27 00:48:17;;;;;;;6.23;1.20;;;;;;;3.96;91.84;100192.66;5070651;28;20211;-54
2024/01/27 00:50:45;;;;;;;3.27;1.27;;;;;;;3.95;91.86;100204.53;5067319;28;20732;-55
2024/01/27 00:53:14;;;;;;;2.73;1.20;;;;;;;3.91;92.08;100189.19;5059093;28;20198;-55
2024/01/27 00:55:43;;;;;;;4.90;1.40;;;;;;;3.93;91.62;100213.00;5063645;28;20205;-55
2024/01/27 00:58:11;;;;;;;3.37;1.33;;;;;;;3.92;91.75;100214.69;5066562;28;20240;-58
2024/01/27 01:00:38;;;;;;;4.13;1.40;;;;;;;3.92;91.34;100203.63;5070628;28;20682;-53
2024/01/27 01:03:06;;;;;;;2.73;1.23;;;;;;;3.90;90.96;100223.97;5070562;28;20206;-55
2024/01/27 01:05:34;;;;;;;8.37;1.80;;;;;;;3.91;90.94;100222.31;5068031;28;20202;-56
2024/01/27 01:08:03;;;;;;;3.80;1.60;;;;;;;3.88;90.47;100234.16;5065160;28;20202;-55
2024/01/27 01:10:33;;;;;;;6.23;1.57;;;;;;;3.91;90.20;100232.50;5074886;28;20200;-58
2024/01/27 01:13:00;;;;;;;7.17;1.40;;;;;;;3.90;89.82;100246.06;5053279;28;20245;-57
2024/01/27 01:15:29;;;;;;;5.43;1.70;;;;;;;3.88;89.71;100244.34;5069244;28;20197;-55
2024/01/27 01:17:56;;;;;;;4.60;1.50;;;;;;;3.88;89.49;100246.06;5070550;28;20631;-56
2024/01/27 01:20:25;;;;;;;7.07;1.77;;;;;;;3.88;89.01;100252.00;5070007;28;20231;-58
2024/01/27 01:22:54;;;;;;;6.53;1.60;;;;;;;3.90;89.06;100256.25;5064580;28;20706;-55
2024/01/27 01:25:22;;;;;;;4.50;1.17;;;;;;;3.87;88.93;100255.41;5071423;28;20670;-54
2024/01/27 01:27:52;;;;;;;5.03;1.50;;;;;;;3.87;88.44;100267.28;5064568;28;20209;-57
2024/01/27 01:30:20;;;;;;;6.50;1.80;;;;;;;3.86;89.10;100261.28;5062937;28;20640;-58
2024/01/27 01:32:48;;;;;;;5.80;1.87;;;;;;;3.84;88.19;100260.44;5068967;28;20322;-53
2024/01/27 01:35:16;;;;;;;7.13;1.67;;;;;;;3.83;88.23;100266.38;5073409;28;20240;-54
2024/01/27 01:37:44;;;;;;;4.70;1.57;;;;;;;3.81;87.83;100262.06;5073489;28;20304;-58
2024/01/27 01:40:12;;;;;;;8.07;1.70;;;;;;;3.82;87.45;100269.72;5073492;28;20212;-55
2024/01/27 01:42:40;;;;;;;5.63;1.43;;;;;;;3.81;86.86;100269.69;5073475;28;20637;-53
2024/01/27 01:45:12;;;;;;;6.20;1.40;;;;;;;3.82;87.02;100271.41;5073797;28;20201;-56
2024/01/27 01:47:41;;;;;;;6.63;1.53;;;;;;;3.81;86.94;100278.19;5068987;28;20292;-54
2024/01/27 01:50:10;;;;;;;3.73;1.40;;;;;;;3.82;86.66;100279.91;5073256;28;20286;-53
2024/01/27 01:52:39;;;;;;;4.03;1.30;;;;;;;3.81;86.80;100278.19;5073258;28;20201;-56
2024/01/27 01:55:08;;;;;;;4.87;1.70;;;;;;;3.81;86.88;100280.75;5071941;28;20719;-52
2024/01/27 01:57:36;;;;;;;6.93;1.90;;;;;;;3.81;86.68;100288.41;5071849;28;20225;-54
2024/01/27 02:00:06;;;;;;;7.10;1.50;;;;;;;3.80;86.49;100288.38;5073250;28;20649;-54
2024/01/27 02:02:35;;;;;;;6.10;1.70;;;;;;;3.79;86.69;100290.06;5069655;28;20198;-56
2024/01/27 02:05:03;;;;;;;5.63;1.77;;;;;;;3.79;87.16;100300.28;5069414;28;20270;-54
2024/01/27 02:07:31;;;;;;;5.30;1.77;;;;;;;3.78;86.79;100283.22;5070040;28;20283;-54
2024/01/27 02:09:59;;;;;;;3.93;1.60;;;;;;;3.80;87.06;100293.47;5072498;28;20221;-54
2024/01/27 02:12:27;;;;;;;10.43;2.87;;;;;;;3.80;86.65;100303.66;5069845;28;20228;-56
2024/01/27 02:14:55;;;;;;;6.27;1.53;;;;;;;3.80;86.97;100301.97;5072566;28;20217;-58
2024/01/27 02:17:23;;;;;;;6.27;1.60;;;;;;;3.83;86.65;100302.03;5072515;28;20358;-52
2024/01/27 02:19:52;;;;;;;4.83;1.60;;;;;;;3.84;87.02;100297.81;5070280;28;20239;-51
2024/01/27 02:22:20;;;;;;;9.70;1.77;;;;;;;3.84;86.84;100296.09;5072356;28;20212;-54
2024/01/27 02:24:50;;;;;;;9.63;2.47;;;;;;;3.84;86.99;100298.66;5072868;28;20197;-54
2024/01/27 02:27:17;;;;;;;9.10;2.00;;;;;;;3.84;86.97;100297.81;5065561;28;20232;-54
2024/01/27 02:29:46;;;;;;;6.70;2.27;;;;;;;3.84;87.06;100306.31;5077647;28;20261;-55
2024/01/27 02:32:13;;;;;;;6.80;2.60;;;;;;;3.83;86.90;100296.09;5072665;28;20212;-54
2024/01/27 02:34:42;;;;;;;9.50;1.87;;;;;;;3.82;87.09;100300.31;5073320;28;20209;-55
2024/01/27 02:37:10;;;;;;;6.03;2.07;;;;;;;3.80;87.17;100296.88;5063225;28;20239;-58
2024/01/27 02:39:38;;;;;;;6.60;2.00;;;;;;;3.79;87.18;100307.91;5077568;28;20205;-53
2024/01/27 02:42:07;;;;;;;6.47;2.17;;;;;;;3.78;87.39;100301.06;5073043;28;20197;-56
2024/01/27 02:44:35;;;;;;;5.73;1.63;;;;;;;3.77;86.69;100317.22;5072569;28;20201;-55
2024/01/27 02:47:03;;;;;;;5.37;1.57;;;;;;;3.78;87.05;100307.88;5064621;28;20225;-57
2024/01/27 02:49:30;;;;;;;3.87;1.87;;;;;;;3.78;86.64;100318.91;5069950;28;20613;-56
2024/01/27 02:51:58;;;;;;;6.30;1.90;;;;;;;3.79;86.43;100315.56;5059976;28;20291;-54
2024/01/27 02:54:27;;;;;;;9.53;2.60;;;;;;;3.79;86.21;100318.09;5070053;28;20224;-52
2024/01/27 02:56:55;;;;;;;5.67;1.80;;;;;;;3.82;86.54;100324.94;5071342;28;20274;-53
2024/01/27 02:59:25;;;;;;;3.80;1.57;;;;;;;3.81;86.61;100334.28;5071812;28;20255;-57
2024/01/27 03:01:53;;;;;;;7.87;2.07;;;;;;;3.82;85.97;100337.69;5069856;28;20716;-55
2024/01/27 03:04:21;;;;;;;8.20;2.00;;;;;;;3.80;86.13;100332.56;5068540;28;20683;-55
2024/01/27 03:06:49;;;;;;;7.83;1.97;;;;;;;3.82;85.66;100335.13;5071906;28;20271;-54
2024/01/27 03:09:18;;;;;;;6.30;2.50;;;;;;;3.83;85.75;100342.81;5072223;28;20327;-55
2024/01/27 03:11:46;;;;;;;4.67;1.47;;;;;;;3.83;85.74;100341.97;5065493;28;20244;-56
2024/01/27 03:14:14;;;;;;;5.20;1.60;;;;;;;3.81;85.33;100339.38;5066262;28;20201;-55
2024/01/27 03:16:43;;;;;;;8.43;2.10;;;;;;;3.81;85.41;100336.81;5071301;28;20206;-54
2024/01/27 03:19:12;;;;;;;8.33;2.27;;;;;;;3.80;85.30;100341.91;5072407;28;20209;-56
2024/01/27 03:21:40;;;;;;;7.67;1.97;;;;;;;3.79;85.65;100335.94;5062591;28;20201;-56
2024/01/27 03:24:08;;;;;;;7.60;2.40;;;;;;;3.80;85.23;100331.72;5069134;28;20228;-55
2024/01/27 03:26:36;;;;;;;5.10;1.63;;;;;;;3.80;85.24;100347.84;5067666;28;20197;-53
2024/01/27 03:29:04;;;;;;;8.43;2.30;;;;;;;3.80;85.31;100341.91;5055466;28;20197;-55
2024/01/27 03:31:33;;;;;;;6.27;1.67;;;;;;;3.81;85.14;100348.72;5065973;28;20201;-53
2024/01/27 03:34:03;;;;;;;8.30;2.30;;;;;;;3.80;85.10;100341.91;5070973;28;20205;-52
2024/01/27 03:36:31;;;;;;;6.23;2.17;;;;;;;3.79;85.06;100356.34;5071555;28;20197;-52
2024/01/27 03:39:00;;;;;;;7.97;2.30;;;;;;;3.79;85.08;100353.78;5070340;28;20217;-54
2024/01/27 03:41:28;;;;;;;9.20;2.87;;;;;;;3.80;85.13;100347.84;5054611;28;20594;-56
2024/01/27 03:43:56;;;;;;;7.63;2.00;;;;;;;3.79;85.12;100350.34;5071160;28;20588;-53
2024/01/27 03:46:24;;;;;;;8.40;2.07;;;;;;;3.79;84.77;100352.91;5071020;28;20297;-56
2024/01/27 03:48:52;;;;;;;11.73;3.07;;;;;;;3.80;84.52;100359.75;5058971;28;20716;-53
2024/01/27 03:51:23;;;;;;;9.33;1.97;;;;;;;3.79;84.57;100353.78;5070925;28;20263;-56
2024/01/27 03:53:51;;;;;;;7.87;2.73;;;;;;;3.79;84.04;100352.91;5070499;28;20574;-55
2024/01/27 03:56:18;;;;;;;10.40;2.37;;;;;;;3.79;84.06;100358.00;5071323;28;20280;-55
2024/01/27 03:58:46;;;;;;;7.63;2.70;;;;;;;3.80;84.09;100365.69;5062831;28;20557;-54
2024/01/27 04:01:16;;;;;;;6.77;1.83;;;;;;;3.78;84.06;100359.69;5062700;28;20259;-54
2024/01/27 04:03:43;;;;;;;7.50;2.30;;;;;;;3.79;84.29;100376.72;5063309;28;20202;-54
2024/01/27 04:06:11;;;;;;;5.40;1.83;;;;;;;3.79;84.85;100371.63;5069929;28;20224;-54
2024/01/27 04:08:43;;;;;;;8.80;2.50;;;;;;;3.77;84.60;100378.38;5071376;28;20670;-56
2024/01/27 04:11:19;;;;;;;4.93;2.40;;;;;;;3.76;84.70;100381.75;5065952;28;20328;-58
2024/01/27 04:13:48;;;;;;;14.83;3.23;;;;;;;3.74;84.76;100380.84;5068228;28;20201;-54
2024/01/27 04:16:16;;;;;;;6.93;2.03;;;;;;;3.74;84.82;100370.66;5063631;28;20756;-57
2024/01/27 04:18:44;;;;;;;6.30;1.90;;;;;;;3.73;84.51;100381.69;5067420;28;20729;-53
2024/01/27 04:21:12;;;;;;;6.37;1.87;;;;;;;3.73;84.50;100376.59;5064486;28;20229;-53
2024/01/27 04:23:41;;;;;;;8.43;2.13;;;;;;;3.73;84.01;100381.69;5070138;28;20276;-55
2024/01/27 04:26:10;;;;;;;6.73;2.10;;;;;;;3.76;84.24;100386.00;5067132;28;20209;-54
2024/01/27 04:28:38;;;;;;;9.40;2.10;;;;;;;3.74;84.11;100373.19;5063001;28;20198;-54
2024/01/27 04:31:06;;;;;;;7.83;2.20;;;;;;;3.75;83.82;100381.69;5064418;28;20216;-58
2024/01/27 04:33:34;;;;;;;8.40;2.80;;;;;;;3.75;83.93;100390.19;5064340;28;20237;-55
2024/01/27 04:36:02;;;;;;;6.80;2.40;;;;;;;3.74;83.44;100385.94;5066035;28;20218;-56
2024/01/27 04:38:30;;;;;;;10.23;2.20;;;;;;;3.76;83.10;100386.00;5070065;28;21256;-57
2024/01/27 04:41:00;;;;;;;9.80;2.90;;;;;;;3.73;83.70;100391.88;5066371;28;20656;-54
2024/01/27 04:43:28;;;;;;;8.67;1.87;;;;;;;3.73;83.45;100383.38;5056831;28;20201;-51
2024/01/27 04:45:56;;;;;;;7.37;1.80;;;;;;;3.71;83.70;100396.06;5061839;28;20263;-54
2024/01/27 04:48:24;;;;;;;7.20;2.33;;;;;;;3.70;83.96;100396.91;5070960;28;20208;-57
2024/01/27 04:50:52;;;;;;;8.10;2.27;;;;;;;3.70;84.02;100409.66;5070229;28;20241;-56
2024/01/27 04:53:20;;;;;;;4.27;2.23;;;;;;;3.69;84.18;100407.94;5069377;28;20656;-55
2024/01/27 04:55:48;;;;;;;6.27;2.60;;;;;;;3.68;84.14;100397.69;5071010;28;20219;-57
2024/01/27 04:58:17;;;;;;;7.43;2.43;;;;;;;3.68;84.16;100407.88;5070301;28;20214;-56
2024/01/27 05:00:45;;;;;;;4.37;2.30;;;;;;;3.69;84.37;100405.38;5067983;28;20669;-56
2024/01/27 05:03:14;;;;;;;9.77;2.73;;;;;;;3.67;84.51;100409.56;5069081;28;20213;-55
2024/01/27 05:05:43;;;;;;;8.53;2.50;;;;;;;3.68;84.32;100407.88;5067677;28;20201;-55
2024/01/27 05:08:11;;;;;;;10.27;2.57;;;;;;;3.66;84.79;100412.94;5074510;28;20250;-55
2024/01/27 05:10:39;;;;;;;6.23;2.50;;;;;;;3.65;84.69;100413.78;5074758;28;20627;-55
2024/01/27 05:13:07;;;;;;;7.27;2.73;;;;;;;3.61;85.13;100410.31;5073807;28;20636;-54
2024/01/27 05:15:36;;;;;;;7.93;1.97;;;;;;;3.61;85.48;100414.56;5074500;28;20641;-54
2024/01/27 05:18:04;;;;;;;6.50;2.53;;;;;;;3.59;85.12;100403.44;5073864;28;20292;-53
2024/01/27 05:20:32;;;;;;;6.50;2.17;;;;;;;3.56;85.60;100409.31;5057836;28;20209;-55
2024/01/27 05:23:00;;;;;;;10.10;3.47;;;;;;;3.56;85.53;100406.78;5071435;28;20205;-56
2024/01/27 05:25:28;;;;;;;11.03;2.87;;;;;;;3.57;85.08;100415.28;5072133;28;20197;-53
2024/01/27 05:27:56;;;;;;;8.10;2.70;;;;;;;3.57;85.70;100415.28;5068625;28;20311;-53
2024/01/27 05:30:24;;;;;;;7.40;2.27;;;;;;;3.55;85.55;100415.25;5061415;28;20665;-55
2024/01/27 05:32:53;;;;;;;7.30;1.77;;;;;;;3.52;85.38;100406.69;5069941;28;20234;-55
2024/01/27 05:35:21;;;;;;;10.17;2.60;;;;;;;3.49;85.26;100398.97;5075426;28;20254;-56
2024/01/27 05:37:50;;;;;;;4.70;1.90;;;;;;;3.47;85.49;100409.13;5074492;28;20243;-56
2024/01/27 05:40:18;;;;;;;8.50;2.47;;;;;;;3.45;86.60;100404.81;5071964;28;20635;-54
2024/01/27 05:42:46;;;;;;;9.53;2.87;;;;;;;3.42;86.40;100397.97;5068174;28;20671;-57
2024/01/27 05:45:14;;;;;;;10.57;2.77;;;;;;;3.39;87.01;100401.31;5066474;28;20279;-56
2024/01/27 05:47:42;;;;;;;7.43;2.70;;;;;;;3.36;87.18;100396.16;5069413;28;20205;-55
2024/01/27 05:50:11;;;;;;;8.43;2.30;;;;;;;3.35;86.79;100391.88;5073494;28;20243;-55
2024/01/27 05:52:39;;;;;;;6.37;2.17;;;;;;;3.39;87.09;100396.22;5070177;28;20193;-58
2024/01/27 05:55:08;;;;;;;9.13;2.77;;;;;;;3.38;86.23;100396.16;5073760;28;20255;-60
2024/01/27 05:57:36;;;;;;;7.87;2.33;;;;;;;3.38;86.18;100397.03;5067555;28;20225;-51
2024/01/27 06:00:05;;;;;;;12.43;3.03;;;;;;;3.39;85.89;100396.22;5063006;28;20213;-54
2024/01/27 06:02:33;;;;;;;11.67;2.50;;;;;;;3.42;85.58;100399.66;5067535;28;20208;-57
2024/01/27 06:05:01;;;;;;;9.20;2.10;;;;;;;3.39;84.97;100396.22;5071777;28;20625;-54
2024/01/27 06:07:30;;;;;;;12.00;2.53;;;;;;;3.42;84.91;100402.19;5073408;28;20564;-53
2024/01/27 06:09:58;;;;;;;9.10;2.53;;;;;;;3.45;83.64;100404.81;5073329;28;20288;-54
2024/01/27 06:12:26;;;;;;;8.57;2.80;;;;;;;3.47;83.78;100403.19;5068041;28;20202;-57
2024/01/27 06:14:54;;;;;;;10.60;2.20;;;;;;;3.50;83.13;100408.31;5071593;28;20677;-54
2024/01/27 06:17:22;;;;;;;11.00;2.73;;;;;;;3.52;82.61;100393.94;5060146;28;20205;-55
2024/01/27 06:19:50;;;;;;;9.67;2.20;;;;;;;3.51;82.24;100395.63;5068547;28;20218;-56
2024/01/27 06:22:18;;;;;;;13.60;2.77;;;;;;;3.51;82.42;100410.91;5069489;28;20198;-52
2024/01/27 06:24:47;;;;;;;11.10;3.03;;;;;;;3.51;82.48;100410.91;5069738;28;20202;-54
2024/01/27 06:27:15;;;;;;;11.60;3.03;;;;;;;3.50;82.46;100413.41;5058667;28;20206;-53
2024/01/27 06:29:43;;;;;;;9.03;2.10;;;;;;;3.47;83.14;100413.38;5069801;28;20657;-56
2024/01/27 06:32:11;;;;;;;9.93;2.97;;;;;;;3.45;83.01;100420.97;5072224;28;20215;-56
2024/01/27 06:34:40;;;;;;;10.37;2.50;;;;;;;3.43;83.28;100411.59;5059727;28;20206;-55
2024/01/27 06:37:08;;;;;;;8.07;2.23;;;;;;;3.39;83.49;100424.25;5060039;28;20205;-55
2024/01/27 06:39:36;;;;;;;9.77;2.83;;;;;;;3.34;84.52;100428.34;5068728;28;20241;-52
2024/01/27 06:42:05;;;;;;;8.70;2.83;;;;;;;3.29;85.50;100424.84;5058443;28;20236;-56
2024/01/27 06:44:33;;;;;;;10.53;2.60;;;;;;;3.27;85.26;100441.75;5067329;28;20200;-54
2024/01/27 06:47:01;;;;;;;12.97;2.90;;;;;;;3.21;85.99;100433.13;5073444;28;20675;-52
2024/01/27 06:49:29;;;;;;;9.13;2.80;;;;;;;3.19;86.37;100445.81;5068627;28;20233;-54
2024/01/27 06:51:57;;;;;;;11.13;2.70;;;;;;;3.16;87.16;100438.09;5071963;28;20292;-57
2024/01/27 06:54:25;;;;;;;9.53;3.10;;;;;;;3.11;87.45;100450.72;5065162;28;20205;-54
2024/01/27 06:56:53;;;;;;;7.10;2.30;;;;;;;3.05;87.84;100439.50;5072482;28;20279;-55
2024/01/27 06:59:22;;;;;;;8.17;2.57;;;;;;;3.04;88.36;100458.16;5064887;28;20230;-54
2024/01/27 07:01:50;;;;;;;7.40;2.70;;;;;;;2.99;88.58;100454.66;5067696;28;20675;-54
2024/01/27 07:04:18;;;;;;;11.17;2.67;;;;;;;2.96;89.01;100450.34;5072200;28;20205;-55
2024/01/27 07:06:46;;;;;;;9.23;3.23;;;;;;;2.94;89.38;100451.97;5072314;28;20284;-54
2024/01/27 07:09:14;;;;;;;9.93;3.20;;;;;;;2.89;90.11;100443.34;5070542;28;20292;-57
2024/01/27 07:11:42;;;;;;;9.97;2.93;;;;;;;2.90;90.04;100439.97;5067823;28;20571;-52
2024/01/27 07:14:10;;;;;;;10.23;2.70;;;;;;;2.92;90.60;100447.69;5068350;28;20703;-53
2024/01/27 07:16:39;;;;;;;10.83;3.30;;;;;;;2.90;90.53;100451.00;5079277;28;20683;-61
2024/01/27 07:19:07;;;;;;;10.03;3.47;;;;;;;2.88;90.28;100460.31;5067373;28;20278;-53
2024/01/27 07:21:35;;;;;;;8.97;2.97;;;;;;;2.87;91.16;100461.16;5071649;28;20208;-53
2024/01/27 07:24:04;;;;;;;11.70;3.17;;;;;;;2.88;90.81;100462.00;5071456;28;20201;-54
2024/01/27 07:26:32;;;;;;;11.60;2.87;;;;;;;2.90;91.48;100458.66;5071872;28;20276;-55
2024/01/27 07:29:00;;;;;;;10.60;3.87;;;;;;;2.90;91.74;100475.59;5062924;28;20212;-51
2024/01/27 07:31:28;;;;;;;8.37;2.70;;;;;;;2.83;91.49;100469.50;5068704;28;20197;-59
2024/01/27 07:33:57;;;;;;;6.27;2.33;;;;;;;2.81;91.54;100470.28;5061550;28;20223;-56
2024/01/27 07:36:25;;;;;;;9.30;3.13;;;;;;;2.81;91.71;100471.16;5070106;28;20197;-53
2024/01/27 07:38:53;;;;;;;4.30;2.20;;;;;;;2.78;92.50;100471.06;5068357;28;20220;-53
2024/01/27 07:41:21;;;;;;;5.17;2.60;;;;;;;2.76;92.18;100475.28;5071753;28;20217;-54
2024/01/27 07:43:49;;;;;;;8.93;3.07;;;;;;;2.74;92.73;100474.34;5070469;28;20201;-57
2024/01/27 07:46:19;;;;;;;4.40;2.50;;;;;;;2.76;92.82;100467.63;5068243;28;20668;-54
2024/01/27 07:48:48;;;;;;;6.30;2.90;;;;;;;2.80;92.95;100483.81;5069551;28;20201;-53
2024/01/27 07:51:18;;;;;;;8.70;3.30;;;;;;;2.82;92.35;100480.50;5066614;28;20261;-58
2024/01/27 07:53:45;;;;;;;7.97;2.90;;;;;;;2.80;92.68;100479.63;5067080;28;20193;-55
2024/01/27 07:56:13;;;;;;;6.60;2.67;;;;;;;2.82;91.94;100475.41;5071488;28;20239;-58
2024/01/27 07:58:41;;;;;;;5.77;2.23;;;;;;;2.85;92.75;100492.44;5069718;28;20259;-56
2024/01/27 08:01:09;;;;;;;5.50;2.73;;;;;;;2.83;91.97;100487.31;5062485;28;20213;-56
2024/01/27 08:03:37;;;;;;;7.90;2.80;;;;;;;2.82;92.71;100482.19;5068215;28;20231;-55
2024/01/27 08:06:09;;;;;;;9.97;3.33;;;;;;;2.83;92.52;100494.09;5069036;28;20668;-55
2024/01/27 08:08:38;;;;;;;10.23;2.60;;;;;;;2.81;93.01;100486.41;5065306;28;20241;-56
2024/01/27 08:11:06;;;;;;;12.40;3.10;;;;;;;2.81;92.88;100496.59;5062563;28;20224;-58
2024/01/27 08:13:34;;;;;;;8.13;3.87;;;;;;;2.79;93.18;100500.78;5069904;28;20222;-53
2024/01/27 08:16:02;;;;;;;6.97;2.90;;;;;;;2.80;93.15;100492.34;5070917;28;20205;-58
2024/01/27 08:18:30;;;;;;;10.37;3.10;;;;;;;2.82;93.19;100510.19;5071110;28;20197;-56
2024/01/27 08:20:58;;;;;;;9.73;3.30;;;;;;;2.80;93.22;100504.16;5064801;28;20224;-58
2024/01/27 08:23:26;;;;;;;8.60;3.20;;;;;;;2.79;93.71;100503.31;5062984;28;20202;-53
2024/01/27 08:25:55;;;;;;;9.20;3.10;;;;;;;2.81;93.50;100506.78;5064219;28;20212;-54
2024/01/27 08:28:23;;;;;;;8.50;3.37;;;;;;;2.84;93.76;100500.91;5066533;28;20205;-56
2024/01/27 08:30:51;;;;;;;5.60;3.23;;;;;;;2.84;93.43;100506.00;5070033;28;20207;-58
2024/01/27 08:33:19;;;;;;;8.37;3.30;;;;;;;2.83;93.64;100505.13;5071167;28;20627;-57
2024/01/27 08:35:48;;;;;;;8.43;3.53;;;;;;;2.84;93.79;100506.00;5073057;28;20346;-58
2024/01/27 08:38:16;;;;;;;11.17;4.00;;;;;;;2.82;93.69;100505.94;5074771;28;20667;-56
2024/01/27 08:40:44;;;;;;;10.93;3.77;;;;;;;2.84;93.60;100504.31;5074455;28;20255;-56
2024/01/27 08:43:13;;;;;;;11.03;3.77;;;;;;;2.86;93.59;100504.34;5063229;28;20297;-57
2024/01/27 08:45:41;;;;;;;8.10;3.87;;;;;;;2.86;93.85;100515.38;5069476;28;20365;-54
2024/01/27 08:48:09;;;;;;;11.70;3.80;;;;;;;2.84;93.85;100516.19;5062973;28;20308;-54
2024/01/27 08:50:38;;;;;;;8.70;3.50;;;;;;;2.83;93.42;100524.63;5072967;28;20287;-56
2024/01/27 08:53:06;;;;;;;7.03;3.30;;;;;;;2.80;93.82;100527.97;5074827;28;20640;-56
2024/01/27 08:55:34;;;;;;;8.27;3.27;;;;;;;2.78;93.92;100532.13;5074412;28;20205;-55
2024/01/27 08:58:02;;;;;;;8.43;3.50;;;;;;;2.76;93.97;100527.81;5075172;28;20718;-53
2024/01/27 09:00:31;;;;;;;6.67;3.23;;;;;;;2.78;94.12;100536.38;5068579;28;20243;-53
2024/01/27 09:02:59;;;;;;;7.70;3.90;;;;;;;2.79;94.16;100533.84;5072035;28;20208;-52
2024/01/27 09:05:27;;;;;;;10.17;3.33;;;;;;;2.80;94.62;100543.22;5071513;28;20216;-53
2024/01/27 09:07:56;;;;;;;8.97;3.30;;;;;;;2.84;94.89;100542.50;5067285;28;20233;-55
2024/01/27 09:10:24;;;;;;;6.53;3.03;;;;;;;2.88;95.08;100553.63;5073002;28;20617;-55
2024/01/27 09:12:52;;;;;;;6.80;2.90;;;;;;;2.89;95.12;100550.25;5074459;28;20209;-55
2024/01/27 09:15:20;;;;;;;6.27;3.00;;;;;;;2.90;95.23;100560.47;5074671;28;20208;-51
2024/01/27 09:17:49;;;;;;;6.83;2.93;;;;;;;2.97;94.83;100565.72;5072273;28;20202;-56
2024/01/27 09:20:17;;;;;;;8.13;3.30;;;;;;;2.98;94.78;100565.75;5068752;28;20205;-56
2024/01/27 09:22:47;;;;;;;4.93;2.87;;;;;;;2.98;94.37;100559.81;5068231;28;20205;-52
2024/01/27 09:25:15;;;;;;;8.60;3.00;;;;;;;3.02;94.99;100567.59;5074674;28;20213;-54
2024/01/27 09:27:43;;;;;;;5.30;2.63;;;;;;;3.05;95.08;100570.19;5075099;28;20201;-55
2024/01/27 09:30:11;;;;;;;8.60;2.90;;;;;;;3.09;94.78;100569.50;5069372;28;20208;-53
2024/01/27 09:32:40;;;;;;;6.40;2.60;;;;;;;3.11;94.16;100572.91;5069417;28;20202;-56
2024/01/27 09:35:10;;;;;;;3.60;2.80;;;;;;;3.12;93.82;100583.97;5070018;28;20334;-56
2024/01/27 09:37:38;;;;;;;5.87;3.27;;;;;;;3.15;94.61;100581.50;5063194;28;20240;-59
2024/01/27 09:40:08;;;;;;;5.00;2.33;;;;;;;3.20;94.48;100586.72;5072129;28;20635;-57
2024/01/27 09:42:39;;;;;;;4.40;2.50;;;;;;;3.22;93.99;100580.00;5074036;28;20243;-55
2024/01/27 09:45:09;;;;;;;4.80;2.07;;;;;;;3.21;93.56;100588.47;5073728;28;20205;-55
2024/01/27 09:47:39;;;;;;;3.70;2.43;;;;;;;3.25;93.77;100592.81;5069797;28;20553;-55
2024/01/27 09:50:13;;;;;;;2.43;1.70;;;;;;;3.25;93.86;100595.34;5072133;28;20940;-53
2024/01/27 09:52:41;;;;;;;3.53;1.80;;;;;;;3.28;93.82;100600.53;5066040;28;20232;-57
2024/01/27 09:55:10;;;;;;;5.20;2.10;;;;;;;3.30;93.90;100604.81;5073102;28;20631;-54
2024/01/27 09:57:39;;;;;;;3.73;2.20;;;;;;;3.31;93.46;100598.91;5067444;28;20756;-55
2024/01/27 10:00:11;;;;;;;4.37;1.70;;;;;;;3.31;93.47;100601.44;5073163;28;20640;-58
2024/01/27 10:02:41;;;;;;;3.07;1.33;;;;;;;3.32;93.62;100610.84;5070308;28;20217;-58
2024/01/27 10:05:10;;;;;;;3.50;1.97;;;;;;;3.34;93.02;100611.72;5073534;28;20201;-55
2024/01/27 10:07:40;;;;;;;5.53;1.97;;;;;;;3.35;92.80;100613.47;5073611;28;20244;-57
2024/01/27 10:10:08;;;;;;;5.47;3.23;;;;;;;3.32;93.20;100613.38;5056585;28;20213;-56
2024/01/27 10:12:41;;;;;;;3.00;1.53;;;;;;;3.35;92.85;100628.75;5067296;28;20208;-56
2024/01/27 10:15:20;;;;;;;1.40;1.30;;;;;;;3.37;92.94;100616.03;5064784;28;20201;-58
2024/01/27 10:17:47;;;;;;;4.90;1.63;;;;;;;3.37;93.55;100622.00;5067337;28;20217;-55
2024/01/27 10:20:18;;;;;;;2.63;1.77;;;;;;;3.35;93.20;100627.88;5069722;28;20695;-55
2024/01/27 10:22:48;;;;;;;3.77;1.93;;;;;;;3.32;93.37;100636.31;5068953;28;20302;-60
2024/01/27 10:25:16;;;;;;;4.97;1.90;;;;;;;3.32;93.08;100628.66;5067262;28;20209;-55
2024/01/27 10:27:45;;;;;;;2.90;1.77;;;;;;;3.34;93.40;100632.09;5057978;28;20212;-54
2024/01/27 10:30:18;;;;;;;2.43;2.20;;;;;;;3.37;93.43;100637.28;5063320;28;20392;-57
2024/01/27 10:32:56;;;;;;;3.93;1.90;;;;;;;3.32;93.04;100651.59;5073373;28;20193;-55
2024/01/27 10:35:25;;;;;;;1.67;1.50;;;;;;;3.33;93.68;100652.44;5060040;28;20202;-55
2024/01/27 10:37:55;;;;;;;2.53;1.83;;;;;;;3.38;93.90;100653.41;5068801;28;20664;-58
2024/01/27 10:40:27;;;;;;;5.13;2.77;;;;;;;3.43;93.94;100658.66;5067901;28;20197;-55
2024/01/27 10:43:02;;;;;;;2.53;1.80;;;;;;;3.44;93.55;100653.59;5070129;28;20217;-54
2024/01/27 10:45:36;;;;;;;4.40;1.83;;;;;;;3.46;92.76;100662.16;5065729;28;20196;-53
2024/01/27 10:48:05;;;;;;;2.87;1.70;;;;;;;3.46;93.06;100667.25;5056615;28;20294;-55
2024/01/27 10:50:37;;;;;;;1.60;1.50;;;;;;;3.46;92.79;100672.34;5065909;28;20253;-55
2024/01/27 10:53:23;;;;;;;4.20;2.20;;;;;;;3.47;92.37;100663.03;5064773;28;20555;-56
2024/01/27 10:55:54;;;;;;;2.67;1.90;;;;;;;3.49;92.78;100669.84;5066876;28;20209;-56
2024/01/27 10:58:24;;;;;;;2.93;1.87;;;;;;;3.48;92.46;100678.34;5059365;28;20622;-57
2024/01/27 11:00:53;;;;;;;2.57;1.57;;;;;;;3.45;91.94;100685.03;5066516;28;20703;-57
2024/01/27 11:03:23;;;;;;;2.57;1.80;;;;;;;3.48;91.95;100685.13;5071252;28;20358;-55
2024/01/27 11:05:53;;;;;;;3.30;1.83;;;;;;;3.47;91.37;100691.91;5063719;28;20664;-59
2024/01/27 11:08:27;;;;;;;2.30;1.80;;;;;;;3.44;91.94;100698.59;5070214;28;20205;-54
2024/01/27 11:10:57;;;;;;;1.97;1.50;;;;;;;3.38;91.72;100701.81;5068946;28;20204;-56
2024/01/27 11:13:26;;;;;;;2.50;1.77;;;;;;;3.31;92.14;100695.69;5067894;28;20567;-56
2024/01/27 11:15:55;;;;;;;1.60;1.33;;;;;;;3.30;92.22;100709.25;5070334;28;20255;-56
2024/01/27 11:18:23;;;;;;;2.60;1.53;;;;;;;3.27;91.68;100711.69;5069139;28;20201;-56
2024/01/27 11:20:53;;;;;;;2.23;1.50;;;;;;;3.26;92.34;100714.22;5071805;28;20193;-56
2024/01/27 11:23:33;;;;;;;2.33;1.83;;;;;;;3.28;92.12;100721.09;5071732;28;20244;-57
2024/01/27 11:26:05;;;;;;;1.87;1.33;;;;;;;3.31;91.49;100726.25;5065917;28;20206;-56
2024/01/27 11:28:33;;;;;;;2.27;1.70;;;;;;;3.34;91.64;100733.97;5064341;28;20920;-54
2024/01/27 11:31:04;;;;;;;1.83;1.40;;;;;;;3.35;91.29;100730.63;5059410;28;20789;-56
2024/01/27 11:33:32;;;;;;;3.33;1.87;;;;;;;3.33;90.28;100742.44;5072731;28;20197;-54
2024/01/27 11:36:02;;;;;;;2.03;1.70;;;;;;;3.35;91.34;100747.56;5062947;28;20206;-56
2024/01/27 11:38:32;;;;;;;2.37;1.67;;;;;;;3.32;90.07;100743.28;5060592;28;20201;-56